Wetterstation Vordersexau
Wetterdaten: Woche 21.11.16 - 27.11.16 (KW47)
Datum Zeit Temp. A. Feuchte A. Luftdruck Regen Wind Richtung Taupunkt Windchill Windben
21.11.2016 00:00 4,5 C 81 % 1003,2 hPa 0,0 l/m 0,0 km/h NO 1,5 C 4,5 C 0,0 km/h
21.11.2016 01:00 3,6 C 84 % 1003,0 hPa 0,0 l/m 0,0 km/h O-SO 1,2 C 3,6 C 0,0 km/h
21.11.2016 02:00 4,3 C 84 % 1002,4 hPa 0,0 l/m 0,0 km/h O-SO 1,8 C 4,3 C 0,0 km/h
21.11.2016 03:00 3,3 C 84 % 1001,9 hPa 0,0 l/m 0,0 km/h O-SO 0,9 C 3,3 C 0,0 km/h
21.11.2016 04:00 3,5 C 85 % 1001,6 hPa 0,0 l/m 0,0 km/h O-SO 1,2 C 3,5 C 0,0 km/h
21.11.2016 05:00 5,0 C 85 % 1001,8 hPa 0,0 l/m 0,0 km/h NW 2,7 C 5,0 C 0,0 km/h
21.11.2016 06:00 5,8 C 84 % 1000,4 hPa 0,0 l/m 0,0 km/h W 3,3 C 5,8 C 0,0 km/h
21.11.2016 07:00 5,4 C 84 % 1001,0 hPa 0,0 l/m 0,0 km/h NW 2,9 C 5,4 C 0,0 km/h
21.11.2016 08:00 5,6 C 84 % 1001,1 hPa 0,0 l/m 0,0 km/h W-NW 3,1 C 5,6 C 0,0 km/h
21.11.2016 09:00 6,4 C 85 % 1000,5 hPa 0,0 l/m 0,0 km/h SO 4,1 C 6,4 C 0,0 km/h
21.11.2016 10:00 10,9 C 79 % 1000,3 hPa 0,0 l/m 0,0 km/h W-NW 7,4 C 10,9 C 0,0 km/h
21.11.2016 11:00 11,1 C 75 % 1000,1 hPa 0,0 l/m 0,0 km/h W-NW 6,8 C 11,1 C 0,0 km/h
21.11.2016 12:00 10,9 C 76 % 1000,0 hPa 0,0 l/m 0,0 km/h S-SW 6,8 C 10,9 C 0,0 km/h
21.11.2016 13:00 10,9 C 75 % 1000,7 hPa 0,0 l/m 0,0 km/h N-NO 6,6 C 10,9 C 0,0 km/h
21.11.2016 14:00 11,1 C 72 % 1000,4 hPa 0,0 l/m 0,0 km/h SW 6,2 C 11,1 C 0,0 km/h
21.11.2016 15:00 10,7 C 75 % 1000,5 hPa 0,0 l/m 0,0 km/h N 6,5 C 10,7 C 0,0 km/h
21.11.2016 16:00 10,1 C 77 % 999,7 hPa 0,0 l/m 0,0 km/h W-NW 6,3 C 10,1 C 0,0 km/h
21.11.2016 17:00 9,0 C 78 % 1001,0 hPa 0,0 l/m 0,0 km/h W 5,4 C 9,0 C 0,0 km/h
21.11.2016 18:00 8,4 C 82 % 1000,6 hPa 0,0 l/m 0,0 km/h NW 5,5 C 8,4 C 0,0 km/h
21.11.2016 19:00 7,9 C 83 % 1000,3 hPa 0,0 l/m 0,0 km/h N 5,2 C 7,9 C 0,0 km/h
21.11.2016 20:00 8,3 C 83 % 999,1 hPa 0,0 l/m 9,1 km/h W 5,6 C 6,3 C 5,0 km/h
21.11.2016 21:00 7,9 C 83 % 1001,5 hPa 0,0 l/m 0,0 km/h O-SO 5,2 C 7,9 C 0,0 km/h
21.11.2016 22:00 7,9 C 84 % 1001,2 hPa 0,0 l/m 2,6 km/h N-NW 5,4 C 7,9 C 1,4 km/h
21.11.2016 23:00 8,1 C 84 % 1002,8 hPa 0,0 l/m 0,0 km/h O-SO 5,6 C 8,1 C 0,0 km/h
22.11.2016 00:00 7,9 C 84 % 1003,1 hPa 0,0 l/m 0,0 km/h O-SO 5,4 C 7,9 C 0,0 km/h
22.11.2016 01:00 6,8 C 85 % 1004,2 hPa 0,0 l/m 0,0 km/h N 4,5 C 6,8 C 0,0 km/h
22.11.2016 02:00 6,8 C 85 % 1006,0 hPa 0,0 l/m 0,0 km/h N 4,5 C 6,8 C 0,0 km/h
22.11.2016 03:00 6,9 C 85 % 1006,6 hPa 0,0 l/m 0,0 km/h N 4,6 C 6,9 C 0,0 km/h
22.11.2016 04:00 7,0 C 85 % 1006,5 hPa 0,0 l/m 0,0 km/h N 4,7 C 7,0 C 0,0 km/h
22.11.2016 05:00 7,3 C 85 % 1007,1 hPa 0,0 l/m 0,0 km/h N 4,9 C 7,3 C 0,0 km/h
22.11.2016 06:00 7,8 C 85 % 1007,7 hPa 0,0 l/m 0,0 km/h N 5,4 C 7,8 C 0,0 km/h
22.11.2016 07:00 7,4 C 85 % 1008,3 hPa 0,0 l/m 0,0 km/h N 5,0 C 7,4 C 0,0 km/h
22.11.2016 08:00 6,8 C 85 % 1008,4 hPa 0,0 l/m 0,0 km/h N 4,5 C 6,8 C 0,0 km/h
22.11.2016 09:00 8,6 C 85 % 1008,9 hPa 0,0 l/m 0,0 km/h N 6,2 C 8,6 C 0,0 km/h
22.11.2016 10:00 10,0 C 85 % 1009,2 hPa 0,0 l/m 0,0 km/h W 7,6 C 10,0 C 0,0 km/h
22.11.2016 11:00 11,4 C 81 % 1010,0 hPa 0,0 l/m 0,0 km/h W 8,3 C 11,4 C 0,0 km/h
22.11.2016 12:00 12,5 C 79 % 1009,3 hPa 0,0 l/m 0,0 km/h N 9,0 C 12,5 C 0,0 km/h
22.11.2016 13:00 13,8 C 71 % 1008,6 hPa 0,0 l/m 0,0 km/h N 8,6 C 13,8 C 0,0 km/h
22.11.2016 14:00 11,9 C 78 % 1008,3 hPa 0,0 l/m 0,0 km/h N-NW 8,2 C 11,9 C 0,0 km/h
22.11.2016 15:00 12,2 C 77 % 1008,4 hPa 0,0 l/m 0,0 km/h N-NW 8,3 C 12,2 C 0,0 km/h
22.11.2016 16:00 10,9 C 81 % 1008,6 hPa 0,0 l/m 0,0 km/h N-NW 7,8 C 10,9 C 0,0 km/h
22.11.2016 17:00 9,2 C 83 % 1009,0 hPa 0,0 l/m 0,0 km/h N-NW 6,5 C 9,2 C 0,0 km/h
22.11.2016 18:00 8,6 C 85 % 1010,5 hPa 0,0 l/m 0,0 km/h N-NW 6,2 C 8,6 C 0,0 km/h
22.11.2016 19:00 8,2 C 85 % 1010,5 hPa 0,0 l/m 0,0 km/h O-SO 5,8 C 8,2 C 0,0 km/h
22.11.2016 20:00 7,9 C 85 % 1011,3 hPa 0,0 l/m 0,0 km/h O-SO 5,5 C 7,9 C 0,0 km/h
22.11.2016 21:00 7,5 C 85 % 1012,0 hPa 0,0 l/m 0,0 km/h O 5,1 C 7,5 C 0,0 km/h
22.11.2016 22:00 7,2 C 84 % 1011,7 hPa 0,0 l/m 0,0 km/h O-SO 4,7 C 7,2 C 0,0 km/h
22.11.2016 23:00 6,1 C 84 % 1011,9 hPa 0,0 l/m 0,0 km/h O-NO 3,6 C 6,1 C 0,0 km/h
23.11.2016 00:00 5,3 C 84 % 1011,7 hPa 0,0 l/m 0,0 km/h O-NO 2,8 C 5,3 C 0,0 km/h
23.11.2016 01:00 4,8 C 84 % 1011,5 hPa 0,0 l/m 0,0 km/h O-NO 2,3 C 4,8 C 0,0 km/h
23.11.2016 02:00 4,5 C 83 % 1011,8 hPa 0,0 l/m 0,0 km/h O-NO 1,9 C 4,5 C 0,0 km/h
23.11.2016 03:00 4,0 C 83 % 1012,2 hPa 0,0 l/m 0,0 km/h O-NO 1,4 C 4,0 C 0,0 km/h
23.11.2016 04:00 4,3 C 82 % 1012,4 hPa 0,0 l/m 0,0 km/h O-NO 1,5 C 4,3 C 0,0 km/h
23.11.2016 05:00 4,9 C 80 % 1012,6 hPa 0,0 l/m 0,0 km/h O-NO 1,7 C 4,9 C 0,0 km/h
23.11.2016 06:00 4,6 C 80 % 1012,6 hPa 0,0 l/m 0,0 km/h O-NO 1,5 C 4,6 C 0,0 km/h
23.11.2016 07:00 5,1 C 79 % 1012,6 hPa 0,0 l/m 0,0 km/h O-NO 1,8 C 5,1 C 0,0 km/h
23.11.2016 08:00 4,9 C 80 % 1012,8 hPa 0,0 l/m 0,0 km/h O-NO 1,7 C 4,9 C 0,0 km/h
23.11.2016 09:00 5,8 C 78 % 1013,7 hPa 0,0 l/m 0,0 km/h O-NO 2,3 C 5,8 C 0,0 km/h
23.11.2016 10:00 6,7 C 78 % 1013,5 hPa 0,0 l/m 0,0 km/h O-NO 3,1 C 6,7 C 0,0 km/h
23.11.2016 11:00 7,6 C 76 % 1013,9 hPa 0,0 l/m 0,0 km/h O-NO 3,6 C 7,6 C 0,0 km/h
23.11.2016 12:00 8,8 C 75 % 1013,3 hPa 0,0 l/m 0,0 km/h O-NO 4,6 C 8,8 C 0,0 km/h
23.11.2016 13:00 8,9 C 77 % 1012,8 hPa 0,0 l/m 0,0 km/h W-SW 5,1 C 8,9 C 0,0 km/h
23.11.2016 14:00 8,8 C 80 % 1013,1 hPa 0,0 l/m 0,0 km/h W 5,5 C 8,8 C 0,0 km/h
23.11.2016 15:00 8,6 C 81 % 1013,2 hPa 0,0 l/m 0,0 km/h W 5,5 C 8,6 C 0,0 km/h
23.11.2016 16:00 8,1 C 81 % 1013,0 hPa 0,0 l/m 0,0 km/h W-NW 5,0 C 8,1 C 0,0 km/h
23.11.2016 17:00 7,7 C 80 % 1012,7 hPa 0,0 l/m 0,0 km/h W-NW 4,5 C 7,7 C 0,0 km/h
23.11.2016 18:00 7,4 C 79 % 1013,1 hPa 0,0 l/m 0,0 km/h W-NW 4,0 C 7,4 C 0,0 km/h
23.11.2016 19:00 7,2 C 78 % 1012,8 hPa 0,0 l/m 0,0 km/h W-NW 3,6 C 7,2 C 0,0 km/h
23.11.2016 20:00 6,9 C 77 % 1012,7 hPa 0,0 l/m 0,0 km/h W-NW 3,2 C 6,9 C 0,0 km/h
23.11.2016 21:00 6,9 C 76 % 1012,6 hPa 0,0 l/m 0,0 km/h W-NW 3,0 C 6,9 C 0,0 km/h
23.11.2016 22:00 6,8 C 76 % 1012,4 hPa 0,0 l/m 0,0 km/h W-NW 2,9 C 6,8 C 0,0 km/h
23.11.2016 23:00 6,8 C 76 % 1012,3 hPa 0,0 l/m 0,0 km/h W-NW 2,9 C 6,8 C 0,0 km/h
24.11.2016 00:00 6,8 C 75 % 1012,0 hPa 0,0 l/m 0,0 km/h S 2,7 C 6,8 C 0,0 km/h
24.11.2016 01:00 6,6 C 75 % 1011,7 hPa 0,0 l/m 0,0 km/h S 2,5 C 6,6 C 0,0 km/h
24.11.2016 02:00 6,6 C 75 % 1011,8 hPa 0,0 l/m 0,0 km/h S-SO 2,5 C 6,6 C 0,0 km/h
24.11.2016 03:00 6,4 C 74 % 1011,4 hPa 0,0 l/m 0,0 km/h SO 2,1 C 6,4 C 0,0 km/h
24.11.2016 04:00 6,3 C 74 % 1011,0 hPa 0,0 l/m 0,0 km/h SO 2,0 C 6,3 C 0,0 km/h
24.11.2016 05:00 5,9 C 73 % 1010,6 hPa 0,0 l/m 0,0 km/h SO 1,4 C 5,9 C 0,0 km/h
24.11.2016 06:00 5,9 C 73 % 1010,5 hPa 0,0 l/m 0,0 km/h O-SO 1,4 C 5,9 C 0,0 km/h
24.11.2016 07:00 5,2 C 73 % 1010,5 hPa 0,0 l/m 0,0 km/h O-SO 0,8 C 5,2 C 0,0 km/h
24.11.2016 08:00 5,4 C 72 % 1011,2 hPa 0,0 l/m 0,0 km/h O-SO 0,8 C 5,4 C 0,0 km/h
24.11.2016 09:00 5,9 C 71 % 1011,9 hPa 0,0 l/m 0,0 km/h O-SO 1,1 C 5,9 C 0,0 km/h
24.11.2016 10:00 6,4 C 70 % 1012,1 hPa 0,0 l/m 0,0 km/h O-SO 1,3 C 6,4 C 0,0 km/h
24.11.2016 11:00 6,8 C 70 % 1012,7 hPa 0,0 l/m 0,0 km/h W-SW 1,7 C 6,8 C 0,0 km/h
24.11.2016 12:00 6,8 C 70 % 1012,6 hPa 0,0 l/m 0,0 km/h W-SW 1,7 C 6,8 C 0,0 km/h
24.11.2016 13:00 6,8 C 71 % 1012,5 hPa 0,0 l/m 0,0 km/h W-SW 1,9 C 6,8 C 0,0 km/h
24.11.2016 14:00 6,8 C 73 % 1012,3 hPa 0,0 l/m 0,0 km/h W-SW 2,3 C 6,8 C 0,0 km/h
24.11.2016 15:00 6,9 C 74 % 1012,1 hPa 0,0 l/m 0,0 km/h W 2,6 C 6,9 C 0,0 km/h
24.11.2016 16:00 6,6 C 75 % 1012,6 hPa 0,0 l/m 0,0 km/h W 2,5 C 6,6 C 0,0 km/h
24.11.2016 17:00 6,5 C 75 % 1012,3 hPa 0,0 l/m 0,0 km/h W 2,4 C 6,5 C 0,0 km/h
24.11.2016 18:00 6,5 C 75 % 1012,4 hPa 0,0 l/m 0,0 km/h W 2,4 C 6,5 C 0,0 km/h
24.11.2016 19:00 6,5 C 74 % 1011,9 hPa 0,0 l/m 0,0 km/h W 2,2 C 6,5 C 0,0 km/h
24.11.2016 20:00 6,4 C 74 % 1011,7 hPa 0,0 l/m 0,0 km/h W 2,1 C 6,4 C 0,0 km/h
24.11.2016 21:00 6,4 C 74 % 1012,3 hPa 0,0 l/m 0,0 km/h W 2,1 C 6,4 C 0,0 km/h
24.11.2016 22:00 6,4 C 74 % 1011,5 hPa 0,0 l/m 0,0 km/h W 2,1 C 6,4 C 0,0 km/h
24.11.2016 23:00 5,1 C 75 % 1011,3 hPa 0,0 l/m 0,0 km/h W-NW 1,0 C 5,1 C 0,0 km/h
25.11.2016 00:00 5,2 C 75 % 1010,9 hPa 0,0 l/m 0,0 km/h W-NW 1,1 C 5,2 C 0,0 km/h
25.11.2016 01:00 5,2 C 74 % 1010,5 hPa 0,0 l/m 0,0 km/h SW 1,0 C 5,2 C 0,0 km/h
25.11.2016 02:00 4,9 C 74 % 1010,0 hPa 0,0 l/m 0,0 km/h S-SW 0,7 C 4,9 C 0,0 km/h
25.11.2016 03:00 4,5 C 74 % 1009,5 hPa 0,0 l/m 0,0 km/h SW 0,3 C 4,5 C 0,0 km/h
25.11.2016 04:00 3,4 C 75 % 1008,7 hPa 0,0 l/m 0,0 km/h S-SW -0,6 C 3,4 C 0,0 km/h
25.11.2016 05:00 2,1 C 76 % 1008,4 hPa 0,0 l/m 0,0 km/h S -1,7 C 2,1 C 0,0 km/h
25.11.2016 06:00 1,4 C 76 % 1008,2 hPa 0,0 l/m 0,0 km/h S -2,4 C 1,4 C 0,0 km/h
25.11.2016 07:00 1,3 C 76 % 1008,4 hPa 0,0 l/m 0,0 km/h S -2,5 C 1,3 C 0,0 km/h
25.11.2016 08:00 1,3 C 75 % 1008,7 hPa 0,0 l/m 0,0 km/h S -2,6 C 1,3 C 0,0 km/h
25.11.2016 09:00 4,2 C 67 % 1009,6 hPa 0,0 l/m 0,0 km/h S -1,4 C 4,2 C 0,0 km/h
25.11.2016 10:00 6,4 C 70 % 1010,4 hPa 0,0 l/m 0,0 km/h SW 1,3 C 6,4 C 0,0 km/h
25.11.2016 11:00 10,4 C 72 % 1011,5 hPa 0,0 l/m 1,9 km/h W-SW 5,6 C 10,4 C 1,1 km/h
25.11.2016 12:00 9,2 C 86 % 1012,2 hPa 0,0 l/m 0,0 km/h W 7,0 C 9,2 C 0,0 km/h
25.11.2016 13:00 10,3 C 85 % 1012,4 hPa 0,0 l/m 0,0 km/h N 7,9 C 10,3 C 0,0 km/h
25.11.2016 14:00 11,9 C 76 % 1012,8 hPa 0,0 l/m 0,0 km/h W 7,8 C 11,9 C 0,0 km/h
25.11.2016 15:00 9,0 C 81 % 1013,2 hPa 0,0 l/m 0,0 km/h W 5,9 C 9,0 C 0,0 km/h
25.11.2016 16:00 8,4 C 83 % 1013,8 hPa 0,0 l/m 0,0 km/h W 5,7 C 8,4 C 0,0 km/h
25.11.2016 17:00 7,4 C 85 % 1013,8 hPa 0,0 l/m 0,0 km/h W 5,0 C 7,4 C 0,0 km/h
25.11.2016 18:00 7,3 C 85 % 1014,4 hPa 0,0 l/m 0,0 km/h W 4,9 C 7,3 C 0,0 km/h
25.11.2016 19:00 7,2 C 86 % 1014,5 hPa 0,0 l/m 0,0 km/h W 5,0 C 7,2 C 0,0 km/h
25.11.2016 20:00 7,2 C 86 % 1014,4 hPa 0,0 l/m 0,0 km/h W 5,0 C 7,2 C 0,0 km/h
25.11.2016 21:00 7,0 C 86 % 1014,4 hPa 0,0 l/m 0,0 km/h W 4,8 C 7,0 C 0,0 km/h
25.11.2016 22:00 7,1 C 85 % 1014,6 hPa 0,0 l/m 0,0 km/h SO 4,8 C 7,1 C 0,0 km/h
25.11.2016 23:00 7,3 C 86 % 1014,7 hPa 0,0 l/m 0,0 km/h SO 5,1 C 7,3 C 0,0 km/h
26.11.2016 00:00 7,3 C 86 % 1015,0 hPa 0,0 l/m 0,0 km/h SO 5,1 C 7,3 C 0,0 km/h
26.11.2016 01:00 7,1 C 86 % 1014,7 hPa 0,0 l/m 0,0 km/h SO 4,9 C 7,1 C 0,0 km/h
26.11.2016 02:00 7,2 C 86 % 1014,8 hPa 0,0 l/m 0,0 km/h SO 5,0 C 7,2 C 0,0 km/h
26.11.2016 03:00 7,3 C 86 % 1014,9 hPa 0,0 l/m 0,0 km/h SO 5,1 C 7,3 C 0,0 km/h
26.11.2016 04:00 6,9 C 86 % 1014,6 hPa 0,0 l/m 0,0 km/h SO 4,7 C 6,9 C 0,0 km/h
26.11.2016 05:00 6,7 C 86 % 1014,6 hPa 0,0 l/m 0,0 km/h SO 4,5 C 6,7 C 0,0 km/h
26.11.2016 06:00 6,6 C 86 % 1014,4 hPa 0,0 l/m 0,0 km/h SO 4,4 C 6,6 C 0,0 km/h
26.11.2016 07:00 6,6 C 86 % 1014,5 hPa 0,0 l/m 0,0 km/h SO 4,4 C 6,6 C 0,0 km/h
26.11.2016 08:00 6,5 C 86 % 1014,6 hPa 0,0 l/m 0,0 km/h SO 4,3 C 6,5 C 0,0 km/h
26.11.2016 09:00 7,1 C 85 % 1014,7 hPa 0,0 l/m 0,0 km/h W-NW 4,8 C 7,1 C 0,0 km/h
26.11.2016 10:00 7,9 C 86 % 1014,4 hPa 0,0 l/m 0,0 km/h W-NW 5,7 C 7,9 C 0,0 km/h
26.11.2016 11:00 8,6 C 86 % 1014,3 hPa 0,0 l/m 0,0 km/h W-NW 6,4 C 8,6 C 0,0 km/h
26.11.2016 12:00 8,5 C 86 % 1014,4 hPa 0,0 l/m 0,0 km/h W-NW 6,3 C 8,5 C 0,0 km/h
26.11.2016 13:00 9,4 C 85 % 1014,6 hPa 0,0 l/m 0,0 km/h W-NW 7,0 C 9,4 C 0,0 km/h
26.11.2016 14:00 8,9 C 85 % 1014,3 hPa 0,0 l/m 0,0 km/h W-NW 6,5 C 8,9 C 0,0 km/h
26.11.2016 15:00 8,8 C 85 % 1014,3 hPa 0,0 l/m 0,0 km/h W-NW 6,4 C 8,8 C 0,0 km/h
26.11.2016 16:00 8,4 C 85 % 1014,4 hPa 0,0 l/m 0,0 km/h W-NW 6,0 C 8,4 C 0,0 km/h
26.11.2016 17:00 7,8 C 86 % 1014,7 hPa 0,0 l/m 0,0 km/h W-NW 5,6 C 7,8 C 0,0 km/h
26.11.2016 18:00 7,6 C 86 % 1014,6 hPa 0,0 l/m 0,0 km/h W-NW 5,4 C 7,6 C 0,0 km/h
26.11.2016 19:00 7,4 C 86 % 1014,8 hPa 0,0 l/m 0,0 km/h W-NW 5,2 C 7,4 C 0,0 km/h
26.11.2016 20:00 7,1 C 86 % 1014,9 hPa 0,0 l/m 0,0 km/h W-NW 4,9 C 7,1 C 0,0 km/h
26.11.2016 21:00 6,9 C 86 % 1014,8 hPa 0,0 l/m 0,0 km/h W-NW 4,7 C 6,9 C 0,0 km/h
26.11.2016 22:00 6,8 C 86 % 1014,9 hPa 0,0 l/m 0,0 km/h W-NW 4,6 C 6,8 C 0,0 km/h
26.11.2016 23:00 6,3 C 86 % 1014,8 hPa 0,0 l/m 0,0 km/h W-NW 4,1 C 6,3 C 0,0 km/h
27.11.2016 00:00 6,6 C 85 % 1015,0 hPa 0,0 l/m 0,0 km/h W-NW 4,3 C 6,6 C 0,0 km/h
27.11.2016 01:00 5,9 C 85 % 1014,7 hPa 0,0 l/m 0,0 km/h W-NW 3,6 C 5,9 C 0,0 km/h
27.11.2016 02:00 4,8 C 86 % 1014,5 hPa 0,0 l/m 0,0 km/h W-NW 2,7 C 4,8 C 0,0 km/h
27.11.2016 03:00 3,4 C 85 % 1014,8 hPa 0,0 l/m 0,0 km/h W-NW 1,1 C 3,4 C 0,0 km/h
27.11.2016 04:00 3,9 C 84 % 1014,8 hPa 0,0 l/m 0,0 km/h W-NW 1,4 C 3,9 C 0,0 km/h
27.11.2016 05:00 4,6 C 83 % 1014,6 hPa 0,0 l/m 0,0 km/h W-NW 2,0 C 4,6 C 0,0 km/h
27.11.2016 06:00 5,0 C 83 % 1014,8 hPa 0,0 l/m 0,0 km/h W-NW 2,4 C 5,0 C 0,0 km/h
27.11.2016 07:00 5,2 C 82 % 1014,8 hPa 0,0 l/m 0,0 km/h W-NW 2,4 C 5,2 C 0,0 km/h
27.11.2016 08:00 5,3 C 82 % 1015,1 hPa 0,0 l/m 0,0 km/h W-NW 2,5 C 5,3 C 0,0 km/h
27.11.2016 09:00 5,8 C 81 % 1015,4 hPa 0,0 l/m 0,0 km/h W 2,8 C 5,8 C 0,0 km/h
27.11.2016 10:00 6,4 C 79 % 1015,3 hPa 0,0 l/m 0,0 km/h W 3,0 C 6,4 C 0,0 km/h
27.11.2016 11:00 7,0 C 79 % 1015,5 hPa 0,0 l/m 0,0 km/h W-NW 3,6 C 7,0 C 0,0 km/h
27.11.2016 12:00 7,9 C 77 % 1015,1 hPa 0,0 l/m 0,0 km/h W-NW 4,1 C 7,9 C 0,0 km/h
27.11.2016 13:00 7,9 C 81 % 1014,6 hPa 0,0 l/m 0,0 km/h W-NW 4,8 C 7,9 C 0,0 km/h
27.11.2016 14:00 8,3 C 84 % 1014,1 hPa 0,0 l/m 0,0 km/h N 5,8 C 8,3 C 0,0 km/h
27.11.2016 15:00 8,0 C 86 % 1014,3 hPa 0,0 l/m 0,0 km/h N-NO 5,8 C 8,0 C 0,0 km/h
27.11.2016 16:00 7,6 C 86 % 1014,2 hPa 0,0 l/m 1,9 km/h N-NO 5,4 C 7,6 C 1,1 km/h
27.11.2016 17:00 7,2 C 86 % 1014,6 hPa 0,0 l/m 0,0 km/h N-NO 5,0 C 7,2 C 0,0 km/h
27.11.2016 18:00 6,9 C 86 % 1015,1 hPa 0,0 l/m 0,0 km/h N-NO 4,7 C 6,9 C 0,0 km/h
27.11.2016 19:00 6,6 C 86 % 1015,4 hPa 0,0 l/m 0,0 km/h NO 4,4 C 6,6 C 0,0 km/h
27.11.2016 20:00 6,9 C 86 % 1015,6 hPa 0,0 l/m 0,0 km/h NO 4,7 C 6,9 C 0,0 km/h
27.11.2016 21:00 6,4 C 85 % 1016,0 hPa 0,0 l/m 0,0 km/h O 4,1 C 6,4 C 0,0 km/h
27.11.2016 22:00 6,2 C 82 % 1015,9 hPa 0,0 l/m 0,0 km/h N 3,4 C 6,2 C 0,0 km/h
27.11.2016 23:00 5,5 C 81 % 1015,9 hPa 0,0 l/m 0,0 km/h N-NO 2,5 C 5,5 C 0,0 km/h
Min-Datum _ 25.11.16 25.11.16 21.11.16 - 21.11.16 - 25.11.16 25.11.16 21.11.16
_ Min-Zeit 07:10 09:10 20:10 - 00:10 - 08:10 07:10 00:10
Minimum _ 1,3 C 67 % 999,1 hPa - 0,0 km/h - -2,6 C 1,3 C 0,0 km/h
Max-Datum _ 22.11.16 25.11.16 27.11.16 21.11.16 21.11.16 - 22.11.16 22.11.16 21.11.16
_ Max-Zeit 13:10 12:10 21:10 00:10 20:10 - 12:10 13:10 20:10
Maximum _ 13,8 C 86 % 1016,0 hPa 0,0 l/m 9,1 km/h
W
- 9,0 C 13,8 C 5,0 km/h
W
Durchschnitt _ 7,0 C 81 % 1010,8 hPa #0,0 l/m 0,1 km/h W-NW 3,9 C 7,0 C 0,1 km/h
www.sexauwetter.de